createdAt,value
2023-05-10T05:03:26.974Z,470.00
2023-05-10T05:04:27.758Z,471.00
2023-05-10T05:05:27.823Z,471.00
2023-05-10T05:06:27.722Z,470.00
2023-05-10T05:07:27.680Z,464.00
2023-05-10T05:08:26.717Z,470.00
2023-05-10T05:09:27.664Z,469.00
2023-05-10T05:10:26.674Z,470.00
2023-05-10T05:11:27.823Z,472.00
2023-05-10T05:12:27.699Z,470.00
2023-05-10T05:13:28.000Z,472.00
2023-05-10T05:14:28.135Z,473.00
2023-05-10T05:15:26.735Z,471.00
2023-05-10T05:16:26.816Z,479.00
2023-05-10T05:17:26.741Z,471.00
2023-05-10T05:18:27.687Z,471.00
2023-05-10T05:19:27.725Z,468.00
2023-05-10T05:20:27.711Z,470.00
2023-05-10T05:21:27.609Z,468.00
2023-05-10T05:22:27.577Z,466.00
2023-05-10T05:23:26.818Z,468.00
2023-05-10T05:24:27.719Z,468.00
2023-05-10T05:25:27.695Z,464.00
2023-05-10T05:26:26.749Z,468.00
2023-05-10T05:27:26.751Z,468.00
2023-05-10T05:28:26.811Z,471.00
2023-05-10T05:29:27.716Z,471.00
2023-05-10T05:30:27.704Z,467.00
2023-05-10T05:31:26.730Z,462.00
2023-05-10T05:32:26.772Z,463.00
2023-05-10T05:33:27.724Z,462.00
2023-05-10T05:34:27.720Z,463.00
2023-05-10T05:35:26.744Z,462.00
2023-05-10T05:36:26.720Z,461.00
2023-05-10T05:37:27.723Z,461.00
2023-05-10T05:38:27.743Z,465.00
2023-05-10T05:39:27.769Z,470.00
2023-05-10T05:40:28.019Z,471.00
2023-05-10T05:41:28.192Z,473.00
2023-05-10T05:42:28.108Z,472.00
2023-05-10T05:43:27.083Z,471.00
2023-05-10T05:44:27.138Z,475.00
2023-05-10T05:45:28.152Z,474.00
2023-05-10T05:46:28.047Z,472.00
2023-05-10T05:47:27.273Z,474.00
2023-05-10T05:48:28.314Z,473.00
2023-05-10T05:49:27.052Z,476.00
2023-05-10T05:50:28.161Z,476.00
2023-05-10T05:51:28.381Z,476.00
2023-05-10T05:52:27.986Z,474.00
2023-05-10T05:53:27.014Z,472.00
2023-05-10T05:54:28.042Z,475.00
2023-05-10T05:55:27.996Z,474.00
2023-05-10T05:56:29.669Z,474.00
2023-05-10T05:57:27.071Z,471.00
2023-05-10T05:58:27.033Z,471.00
2023-05-10T06:00:57.222Z,479.00
2023-05-10T06:04:01.114Z,468.00
2023-05-10T06:06:51.577Z,472.00
2023-05-10T06:09:05.120Z,472.00
2023-05-10T06:11:23.755Z,459.00
2023-05-10T06:12:24.466Z,465.00
2023-05-10T06:13:24.571Z,466.00
2023-05-10T06:14:23.168Z,468.00
2023-05-10T06:15:24.152Z,465.00
2023-05-10T06:16:24.437Z,467.00
2023-05-10T06:17:24.144Z,473.00
2023-05-10T06:18:24.134Z,482.00
2023-05-10T06:19:23.150Z,481.00
2023-05-10T06:20:23.152Z,479.00
2023-05-10T06:21:24.154Z,483.00
2023-05-10T06:22:24.129Z,481.00
2023-05-10T06:23:24.179Z,475.00
2023-05-10T06:24:23.115Z,478.00
2023-05-10T06:25:24.217Z,473.00
2023-05-10T06:26:24.097Z,470.00
2023-05-10T06:27:24.091Z,467.00
2023-05-10T06:28:23.082Z,473.00
2023-05-10T06:29:24.091Z,462.00
2023-05-10T06:30:23.053Z,485.00
2023-05-10T06:31:24.192Z,482.00
2023-05-10T06:32:24.091Z,475.00
2023-05-10T06:33:24.062Z,475.00
2023-05-10T06:34:24.104Z,484.00
2023-05-10T06:35:34.116Z,480.00
2023-05-10T06:37:42.510Z,469.00
2023-05-10T06:40:39.257Z,470.00
2023-05-10T06:42:58.215Z,470.00
2023-05-10T06:43:59.026Z,474.00
2023-05-10T06:46:24.185Z,469.00
2023-05-10T06:49:05.437Z,468.00
2023-05-10T06:51:12.284Z,472.00
2023-05-10T06:52:17.981Z,472.00
2023-05-10T06:54:31.712Z,476.00
2023-05-10T06:55:32.269Z,469.00
2023-05-10T07:01:42.798Z,546.00
2023-05-10T07:04:50.304Z,527.00
2023-05-10T07:11:02.872Z,486.00
2023-05-10T07:13:24.589Z,472.00
2023-05-10T07:14:24.932Z,475.00
2023-05-10T07:16:43.390Z,499.00
2023-05-10T07:19:09.115Z,514.00
2023-05-10T07:20:02.797Z,495.00
2023-05-10T07:21:02.614Z,486.00
2023-05-10T07:22:02.520Z,480.00
2023-05-10T07:23:02.516Z,475.00
2023-05-10T07:24:02.508Z,478.00
2023-05-10T07:25:03.532Z,493.00
2023-05-10T07:26:03.546Z,507.00
2023-05-10T07:27:03.494Z,498.00
2023-05-10T07:28:03.472Z,494.00
2023-05-10T07:29:03.467Z,488.00
2023-05-10T07:30:03.503Z,457.00
2023-05-10T07:31:03.543Z,450.00
2023-05-10T07:32:02.501Z,455.00
2023-05-10T07:33:03.507Z,458.00
2023-05-10T07:34:03.448Z,458.00
2023-05-10T07:35:03.436Z,463.00
2023-05-10T07:36:03.416Z,473.00
2023-05-10T07:37:03.443Z,469.00
2023-05-10T07:38:03.417Z,467.00
2023-05-10T07:39:03.418Z,463.00
2023-05-10T07:40:03.403Z,458.00
2023-05-10T07:41:03.403Z,455.00
2023-05-10T07:42:03.372Z,452.00
2023-05-10T07:43:02.440Z,454.00
2023-05-10T07:44:03.373Z,460.00
2023-05-10T07:45:02.360Z,455.00
2023-05-10T07:46:03.417Z,455.00
2023-05-10T07:47:03.362Z,452.00
2023-05-10T07:48:03.560Z,453.00
2023-05-10T07:49:03.373Z,453.00
2023-05-10T07:50:03.329Z,452.00
2023-05-10T07:51:02.340Z,451.00
2023-05-10T07:52:02.303Z,452.00
2023-05-10T07:53:03.327Z,457.00
2023-05-10T07:54:03.545Z,459.00
2023-05-10T07:55:02.332Z,452.00
2023-05-10T07:56:02.394Z,452.00
2023-05-10T07:57:02.322Z,449.00
2023-05-10T07:58:02.316Z,450.00
2023-05-10T07:59:02.327Z,452.00
2023-05-10T08:00:02.258Z,449.00
2023-05-10T08:01:03.276Z,449.00
2023-05-10T08:02:03.264Z,454.00
2023-05-10T08:03:03.433Z,446.00
2023-05-10T08:04:02.369Z,447.00
2023-05-10T08:05:02.350Z,451.00
2023-05-10T08:06:03.361Z,454.00
2023-05-10T08:07:02.413Z,455.00
2023-05-10T08:08:03.489Z,456.00
2023-05-10T08:09:02.493Z,456.00
2023-05-10T08:10:03.530Z,458.00
2023-05-10T08:11:03.513Z,453.00
2023-05-10T08:12:03.549Z,457.00
2023-05-10T08:13:03.560Z,455.00
2023-05-10T08:14:03.646Z,456.00
2023-05-10T08:15:03.738Z,458.00
2023-05-10T08:16:03.695Z,457.00
2023-05-10T08:17:03.699Z,457.00
2023-05-10T08:18:02.818Z,457.00
2023-05-10T08:19:02.943Z,455.00
2023-05-10T08:20:03.805Z,453.00
2023-05-10T08:21:03.842Z,454.00
2023-05-10T08:22:03.842Z,455.00
2023-05-10T08:23:02.807Z,456.00
2023-05-10T08:24:03.834Z,444.00
2023-05-10T08:25:02.934Z,454.00
2023-05-10T08:26:03.961Z,454.00
2023-05-10T08:27:03.952Z,457.00
2023-05-10T08:28:04.030Z,458.00
2023-05-10T08:29:05.224Z,454.00
2023-05-10T08:30:04.065Z,457.00
2023-05-10T08:31:04.901Z,456.00
2023-05-10T09:07:31.616Z,447.00
2023-05-10T09:13:31.625Z,454.00
2023-05-10T09:15:47.624Z,454.00
2023-05-10T09:18:06.500Z,458.00
2023-05-10T09:19:07.016Z,459.00
2023-05-10T09:21:30.307Z,460.00
2023-05-10T09:23:58.640Z,464.00
2023-05-10T09:24:50.463Z,461.00
2023-05-10T09:27:04.060Z,452.00
2023-05-10T09:28:05.498Z,451.00
2023-05-10T09:30:45.150Z,460.00
2023-05-10T09:31:44.819Z,460.00
2023-05-10T09:34:41.565Z,457.00
2023-05-10T09:35:35.465Z,458.00
2023-05-10T09:37:54.362Z,457.00
2023-05-10T09:38:53.651Z,452.00
2023-05-10T09:39:54.596Z,452.00
2023-05-10T09:40:54.581Z,448.00
2023-05-10T09:41:54.561Z,449.00
2023-05-10T09:42:54.643Z,446.00
2023-05-10T09:43:54.631Z,442.00
2023-05-10T09:46:25.780Z,444.00
2023-05-10T09:51:14.509Z,449.00
2023-05-10T09:53:32.495Z,459.00
2023-05-10T09:54:32.980Z,452.00
2023-05-10T09:55:33.787Z,454.00
2023-05-10T09:56:47.867Z,460.00
2023-05-10T09:57:56.289Z,446.00
2023-05-10T09:58:57.246Z,447.00
2023-05-10T09:59:56.184Z,450.00
2023-05-10T10:00:57.257Z,452.00
2023-05-10T10:01:58.823Z,451.00
2023-05-10T10:05:34.615Z,454.00
2023-05-10T10:06:46.563Z,443.00
2023-05-10T10:07:49.788Z,447.00
2023-05-10T10:08:35.561Z,456.00
2023-05-10T10:09:35.500Z,457.00
2023-05-10T10:10:35.504Z,448.00
2023-05-10T10:11:34.475Z,449.00
2023-05-10T10:12:35.473Z,448.00
2023-05-10T10:13:34.532Z,451.00
2023-05-10T10:14:34.422Z,457.00
2023-05-10T10:15:35.594Z,461.00
2023-05-10T10:16:35.573Z,460.00
2023-05-10T10:17:35.506Z,465.00
2023-05-10T10:18:34.398Z,451.00
2023-05-10T10:19:34.425Z,450.00
2023-05-10T10:20:35.460Z,447.00
2023-05-10T10:21:35.440Z,448.00
2023-05-10T10:22:35.377Z,440.00
2023-05-10T10:23:35.576Z,442.00
2023-05-10T10:24:35.356Z,442.00
2023-05-10T10:25:34.345Z,451.00
2023-05-10T10:26:35.357Z,440.00
2023-05-10T10:27:34.373Z,443.00
2023-05-10T10:28:34.325Z,451.00
2023-05-10T10:29:34.328Z,437.00
2023-05-10T10:30:34.311Z,439.00
2023-05-10T10:31:34.355Z,435.00
2023-05-10T10:32:35.392Z,436.00
2023-05-10T10:33:34.375Z,442.00
2023-05-10T10:34:34.277Z,438.00
2023-05-10T10:35:35.288Z,435.00
2023-05-10T10:36:35.328Z,439.00
2023-05-10T10:37:35.352Z,452.00
2023-05-10T10:38:35.262Z,443.00
2023-05-10T10:39:35.265Z,446.00
2023-05-10T10:40:35.017Z,451.00
2023-05-10T10:41:34.274Z,446.00
2023-05-10T10:42:35.250Z,444.00
2023-05-10T10:43:35.258Z,440.00
2023-05-10T10:44:35.275Z,443.00
2023-05-10T10:45:35.267Z,441.00
2023-05-10T10:46:34.292Z,441.00
2023-05-10T10:47:35.327Z,439.00
2023-05-10T10:48:35.378Z,442.00
2023-05-10T10:49:34.403Z,456.00
2023-05-10T10:50:35.541Z,459.00
2023-05-10T10:51:35.504Z,444.00
2023-05-10T10:52:35.530Z,444.00
2023-05-10T10:53:35.566Z,447.00
2023-05-10T10:54:34.586Z,445.00
2023-05-10T10:55:34.628Z,449.00
2023-05-10T10:56:36.936Z,448.00
2023-05-10T10:57:35.661Z,446.00
2023-05-10T10:58:35.723Z,445.00
2023-05-10T10:59:34.859Z,445.00
2023-05-10T11:00:35.831Z,443.00
2023-05-10T11:01:35.957Z,444.00
2023-05-10T11:02:34.931Z,443.00
2023-05-10T11:03:34.979Z,444.00
2023-05-10T11:04:35.972Z,444.00
2023-05-10T11:05:35.994Z,442.00
2023-05-10T11:06:35.022Z,443.00
2023-05-10T11:07:35.050Z,442.00
2023-05-10T11:08:38.230Z,449.00
2023-05-10T11:09:35.037Z,447.00
2023-05-10T11:10:36.042Z,449.00
2023-05-10T11:11:36.018Z,449.00
2023-05-10T11:12:35.022Z,444.00
2023-05-10T11:13:36.030Z,441.00
2023-05-10T11:14:35.007Z,445.00
2023-05-10T11:15:36.005Z,439.00
2023-05-10T11:16:36.005Z,442.00
2023-05-10T11:17:36.065Z,445.00
2023-05-10T11:18:36.010Z,448.00
2023-05-10T11:19:36.001Z,450.00
2023-05-10T11:20:35.967Z,450.00
2023-05-10T11:21:35.950Z,450.00
2023-05-10T11:22:35.936Z,450.00
2023-05-10T11:23:35.965Z,450.00
2023-05-10T11:24:34.934Z,450.00
2023-05-10T11:25:34.924Z,451.00
2023-05-10T11:26:35.903Z,454.00
2023-05-10T11:27:34.897Z,454.00
2023-05-10T11:28:34.927Z,453.00
2023-05-10T11:29:34.893Z,449.00
2023-05-10T11:30:34.943Z,450.00
2023-05-10T11:31:35.890Z,456.00
2023-05-10T11:32:34.870Z,454.00
2023-05-10T11:33:35.863Z,452.00
2023-05-10T11:34:34.999Z,449.00
2023-05-10T11:35:34.853Z,449.00
2023-05-10T11:36:35.830Z,451.00
2023-05-10T11:37:35.835Z,455.00
2023-05-10T11:38:35.822Z,453.00
2023-05-10T11:39:36.257Z,451.00
2023-05-10T11:40:35.840Z,455.00
2023-05-10T11:41:34.809Z,452.00
2023-05-10T11:42:34.813Z,453.00
2023-05-10T11:43:34.819Z,453.00
2023-05-10T11:44:35.815Z,450.00
2023-05-10T11:45:34.829Z,448.00
2023-05-10T11:46:35.859Z,443.00
2023-05-10T11:47:34.789Z,443.00
2023-05-10T11:48:34.759Z,441.00
2023-05-10T11:49:35.790Z,440.00
2023-05-10T11:50:35.773Z,441.00
2023-05-10T11:51:35.777Z,438.00
2023-05-10T11:52:35.724Z,434.00
2023-05-10T11:53:35.728Z,435.00
2023-05-10T11:54:34.758Z,436.00
2023-05-10T11:55:34.780Z,435.00
2023-05-10T11:56:35.771Z,437.00
2023-05-10T11:57:35.829Z,437.00
2023-05-10T11:58:35.819Z,436.00
2023-05-10T11:59:35.870Z,433.00
2023-05-10T12:00:35.913Z,433.00
2023-05-10T12:01:35.938Z,433.00
2023-05-10T12:02:36.029Z,436.00
2023-05-10T12:03:35.266Z,440.00
2023-05-10T12:04:36.059Z,437.00
2023-05-10T12:05:35.044Z,436.00
2023-05-10T12:06:35.082Z,434.00
2023-05-10T12:07:36.112Z,437.00
2023-05-10T12:08:36.122Z,439.00
2023-05-10T12:09:43.714Z,443.00
2023-05-10T12:10:36.153Z,440.00
2023-05-10T12:11:35.128Z,441.00
2023-05-10T12:12:36.114Z,441.00
2023-05-10T12:13:35.128Z,443.00
2023-05-10T12:14:35.116Z,446.00
2023-05-10T12:15:35.110Z,443.00
2023-05-10T12:16:35.132Z,481.00
2023-05-10T12:17:36.135Z,450.00
2023-05-10T12:18:36.116Z,448.00
2023-05-10T12:19:36.093Z,448.00
2023-05-10T12:20:36.038Z,443.00
2023-05-10T12:21:35.081Z,443.00
2023-05-10T12:22:35.036Z,442.00
2023-05-10T12:23:36.030Z,444.00
2023-05-10T12:24:35.056Z,442.00
2023-05-10T12:25:35.037Z,441.00
2023-05-10T12:26:36.049Z,441.00
2023-05-10T12:27:35.035Z,440.00
2023-05-10T12:28:35.992Z,440.00
2023-05-10T12:29:35.022Z,441.00
2023-05-10T12:30:36.002Z,439.00
2023-05-10T12:31:36.022Z,441.00
2023-05-10T12:32:34.985Z,436.00
2023-05-10T12:33:35.008Z,437.00
2023-05-10T12:34:35.963Z,440.00
2023-05-10T12:35:34.958Z,443.00
2023-05-10T12:36:35.979Z,439.00
2023-05-10T12:37:35.924Z,438.00
2023-05-10T12:38:35.914Z,438.00
2023-05-10T12:39:35.923Z,439.00
2023-05-10T12:40:35.992Z,440.00
2023-05-10T12:41:34.903Z,441.00
2023-05-10T12:42:35.881Z,444.00
2023-05-10T12:43:34.921Z,440.00
2023-05-10T12:44:35.867Z,439.00
2023-05-10T12:45:35.924Z,439.00
2023-05-10T12:46:35.945Z,450.00
2023-05-10T12:47:34.948Z,442.00
2023-05-10T12:48:35.010Z,441.00
2023-05-10T12:49:35.987Z,440.00
2023-05-10T12:50:35.987Z,439.00
2023-05-10T12:51:35.056Z,442.00
2023-05-10T12:52:36.117Z,451.00
2023-05-10T12:53:36.038Z,440.00
2023-05-10T12:54:36.109Z,445.00
2023-05-10T12:55:35.138Z,440.00
2023-05-10T12:56:36.165Z,447.00
2023-05-10T12:57:36.154Z,448.00
2023-05-10T12:58:36.262Z,442.00
2023-05-10T12:59:37.373Z,440.00
2023-05-10T13:00:36.176Z,441.00
2023-05-10T13:01:36.263Z,442.00
2023-05-10T13:02:35.169Z,444.00
2023-05-10T13:03:35.169Z,444.00
2023-05-10T13:04:36.201Z,441.00
2023-05-10T13:05:35.161Z,443.00
2023-05-10T13:06:36.100Z,442.00
2023-05-10T13:07:36.164Z,447.00
2023-05-10T13:08:35.116Z,450.00
2023-05-10T13:09:36.166Z,446.00
2023-05-10T13:10:36.131Z,449.00
2023-05-10T13:11:36.129Z,459.00
2023-05-10T13:12:36.078Z,450.00
2023-05-10T13:13:35.063Z,446.00
2023-05-10T13:14:35.056Z,440.00
2023-05-10T13:15:36.054Z,434.00
2023-05-10T13:16:36.085Z,434.00
2023-05-10T13:17:36.090Z,438.00
2023-05-10T13:18:36.043Z,444.00
2023-05-10T13:19:35.014Z,445.00
2023-05-10T13:20:35.007Z,450.00
2023-05-10T13:21:35.000Z,449.00
2023-05-10T13:22:40.222Z,448.00
2023-05-10T13:23:36.221Z,446.00
2023-05-10T13:24:36.240Z,447.00
2023-05-10T13:25:36.277Z,445.00
2023-05-10T13:26:35.301Z,444.00
2023-05-10T13:27:35.337Z,443.00
2023-05-10T13:28:36.396Z,445.00
2023-05-10T13:29:36.366Z,443.00
2023-05-10T13:30:35.375Z,441.00
2023-05-10T13:31:36.429Z,441.00
2023-05-10T13:32:36.457Z,439.00
2023-05-10T13:33:36.506Z,441.00
2023-05-10T13:34:35.504Z,445.00
2023-05-10T13:35:35.488Z,447.00
2023-05-10T13:36:36.521Z,447.00
2023-05-10T13:37:36.539Z,449.00
2023-05-10T13:38:36.546Z,447.00
2023-05-10T13:39:36.595Z,451.00
2023-05-10T13:40:36.559Z,450.00
2023-05-10T13:41:36.551Z,450.00
2023-05-10T13:42:36.577Z,441.00
2023-05-10T13:43:35.577Z,442.00
2023-05-10T13:44:36.630Z,445.00
2023-05-10T13:45:35.632Z,439.00
2023-05-10T13:46:35.685Z,437.00
2023-05-10T13:47:36.647Z,439.00
2023-05-10T13:48:38.153Z,439.00
2023-05-10T13:49:35.617Z,440.00
2023-05-10T13:50:36.632Z,442.00
2023-05-10T13:51:36.698Z,439.00
2023-05-10T13:52:35.607Z,443.00
2023-05-10T13:53:36.605Z,440.00
2023-05-10T13:54:35.603Z,440.00
2023-05-10T13:55:35.596Z,439.00
2023-05-10T13:56:36.580Z,442.00
2023-05-10T13:57:36.560Z,441.00
2023-05-10T13:58:36.570Z,441.00
2023-05-10T13:59:36.571Z,441.00
2023-05-10T14:00:35.557Z,447.00
2023-05-10T14:01:35.598Z,447.00
2023-05-10T14:02:35.600Z,446.00
2023-05-10T14:03:35.593Z,443.00
2023-05-10T14:04:35.534Z,447.00
2023-05-10T14:05:35.521Z,461.00
2023-05-10T14:06:35.506Z,448.00
2023-05-10T14:07:35.501Z,445.00
2023-05-10T14:08:36.490Z,453.00
2023-05-10T14:09:35.479Z,451.00
2023-05-10T14:10:36.467Z,454.00
2023-05-10T14:11:35.476Z,462.00
2023-05-10T14:12:36.471Z,454.00
2023-05-10T14:13:36.467Z,452.00
2023-05-10T14:14:36.459Z,452.00
2023-05-10T14:15:35.435Z,450.00
2023-05-10T14:16:35.526Z,448.00
2023-05-10T14:17:35.616Z,450.00
2023-05-10T14:18:36.647Z,453.00
2023-05-10T14:19:36.678Z,450.00
2023-05-10T14:20:36.726Z,459.00
2023-05-10T14:21:35.756Z,450.00
2023-05-10T14:22:36.815Z,444.00
2023-05-10T14:23:36.836Z,443.00
2023-05-10T14:24:35.902Z,445.00
2023-05-10T14:25:35.950Z,443.00
2023-05-10T14:26:36.975Z,441.00
2023-05-10T14:27:36.086Z,442.00
2023-05-10T14:28:36.128Z,444.00
2023-05-10T14:29:36.117Z,456.00
2023-05-10T14:30:36.192Z,450.00
2023-05-10T14:31:36.309Z,445.00
2023-05-10T14:32:36.353Z,443.00
2023-05-10T14:33:36.322Z,442.00
2023-05-10T14:34:36.392Z,440.00
2023-05-10T14:35:37.445Z,442.00
2023-05-10T14:36:37.501Z,442.00
2023-05-10T14:37:37.557Z,442.00
2023-05-10T14:38:36.579Z,439.00
2023-05-10T14:39:36.647Z,449.00
2023-05-10T14:40:36.709Z,446.00
2023-05-10T14:41:36.780Z,446.00
2023-05-10T14:42:37.778Z,444.00
2023-05-10T14:43:36.823Z,445.00
2023-05-10T14:44:37.816Z,446.00
2023-05-10T14:45:37.984Z,445.00
2023-05-10T14:46:36.985Z,444.00
2023-05-10T14:47:37.995Z,439.00
2023-05-10T14:48:37.031Z,434.00
2023-05-10T14:49:37.109Z,429.00
2023-05-10T14:50:38.149Z,433.00
2023-05-10T14:51:37.180Z,435.00
2023-05-10T14:52:38.234Z,436.00
2023-05-10T14:53:37.261Z,444.00
2023-05-10T14:54:38.319Z,444.00
2023-05-10T14:55:38.396Z,441.00
2023-05-10T14:56:37.428Z,444.00
2023-05-10T14:57:37.461Z,448.00
2023-05-10T14:58:38.457Z,442.00
2023-05-10T14:59:38.498Z,441.00
2023-05-10T15:00:37.520Z,441.00
2023-05-10T15:01:37.579Z,441.00
2023-05-10T15:02:38.613Z,443.00
2023-05-10T15:03:37.781Z,442.00
2023-05-10T15:04:38.686Z,446.00
2023-05-10T15:05:37.719Z,445.00
2023-05-10T15:06:37.748Z,445.00
2023-05-10T15:07:37.783Z,442.00
2023-05-10T15:08:38.825Z,442.00
2023-05-10T15:09:38.860Z,443.00
2023-05-10T15:10:38.929Z,442.00
2023-05-10T15:11:38.965Z,441.00
2023-05-10T15:12:39.029Z,441.00
2023-05-10T15:13:39.056Z,439.00
2023-05-10T15:14:39.048Z,432.00
2023-05-10T15:15:39.179Z,431.00
2023-05-10T15:16:39.205Z,440.00
2023-05-10T15:17:39.130Z,438.00
2023-05-10T15:18:38.143Z,436.00
2023-05-10T15:19:38.162Z,435.00
2023-05-10T15:20:39.195Z,435.00
2023-05-10T15:21:38.178Z,435.00
2023-05-10T15:22:39.208Z,436.00
2023-05-10T15:23:38.190Z,438.00
2023-05-10T15:24:39.212Z,440.00
2023-05-10T15:25:38.270Z,437.00
2023-05-10T15:26:38.321Z,436.00
2023-05-10T15:27:38.387Z,438.00
2023-05-10T15:28:39.366Z,443.00
2023-05-10T15:29:39.362Z,439.00
2023-05-10T16:41:15.674Z,437.00
